This is the latest recevied weather packets stored in our database for station/object VE3MJM-WX. If no packets are shown the sender has not sent any weather packets the latest 10 day(s).
| Time | Temp. | Humidity | Pressure | Rain* | Wind** | Luminosity | Snow |
|---|---|---|---|---|---|---|---|
| 1777806840 | 1.67° C | 78% | 1008.4 hPa | 0 mm | - | - | - |
| 1777805938 | 1.11° C | 80% | 1008.5 hPa | 0 mm | - | - | - |
| 1777805035 | -0.56° C | 87% | 1008.7 hPa | 0 mm | - | - | - |
| 1777804133 | -1.11° C | 88% | 1008.6 hPa | 0 mm | - | - | - |
| 1777803230 | -1.11° C | 88% | 1008.7 hPa | 0 mm | - | - | - |
| 1777802328 | -0.56° C | 86% | 1008.5 hPa | 0 mm | - | - | - |
| 1777801425 | 0° C | 84% | 1008.6 hPa | 0 mm | - | - | - |
| 1777800522 | -0.56° C | 85% | 1008.9 hPa | 0 mm | - | - | - |
| 1777799620 | -0.56° C | 84% | 1008.9 hPa | 0 mm | - | - | - |
| 1777798717 | -0.56° C | 84% | 1009 hPa | 0 mm | - | - | - |
| 1777797815 | -0.56° C | 85% | 1009 hPa | 0 mm | - | - | - |
| 1777796912 | -0.56° C | 84% | 1009 hPa | 0 mm | - | - | - |
| 1777796013 | -0.56° C | 85% | 1009.3 hPa | 0 mm | - | - | - |
| 1777795107 | -0.56° C | 85% | 1009.2 hPa | 0 mm | - | - | - |
| 1777794204 | -1.11° C | 86% | 1009.3 hPa | 0 mm | - | - | - |
| 1777793302 | -1.67° C | 88% | 1009.3 hPa | 0 mm | - | - | - |
| 1777792399 | -1.67° C | 88% | 1009.3 hPa | 0 mm | - | - | - |
| 1777791497 | -2.22° C | 87% | 1009.5 hPa | 0 mm | - | - | - |
| 1777790594 | -2.22° C | 87% | 1009.8 hPa | 0 mm | - | - | - |
| 1777789722 | -2.22° C | 89% | 1010 hPa | 0 mm | - | - | - |
| 1777788819 | -2.22° C | 87% | 1010.1 hPa | 0 mm | - | - | - |
| 1777787917 | -2.22° C | 87% | 1010.4 hPa | 0 mm | - | - | - |
| 1777787014 | -2.22° C | 91% | 1010.4 hPa | 0 mm | - | - | - |
| 1777786115 | -2.22° C | 87% | 1010.4 hPa | 0 mm | - | - | - |
| 1777785211 | -2.78° C | 86% | 1010.7 hPa | 0 mm | - | - | - |
* Rain latest hour (hover to see other rain measurements)
** Current wind speed in m/s (hover to see current wind gust speed)